createdAt,value
2018-12-25T00:01:58.727Z,4.00
2018-12-25T00:04:26.576Z,4.00
2018-12-25T00:06:54.439Z,4.00
2018-12-25T00:09:22.449Z,4.00
2018-12-25T00:11:50.550Z,4.00
2018-12-25T00:14:19.545Z,4.00
2018-12-25T00:16:47.334Z,4.00
2018-12-25T00:19:15.857Z,4.00
2018-12-25T00:21:46.814Z,4.00
2018-12-25T00:24:14.764Z,4.00
2018-12-25T00:26:42.848Z,3.90
2018-12-25T00:29:10.925Z,3.80
2018-12-25T00:31:39.795Z,3.90
2018-12-25T00:34:10.716Z,3.80
2018-12-25T00:36:41.083Z,3.80
2018-12-25T00:39:16.775Z,3.80
2018-12-25T00:41:48.648Z,3.70
2018-12-25T00:44:17.077Z,3.60
2018-12-25T00:46:46.805Z,3.60
2018-12-25T00:49:15.793Z,3.50
2018-12-25T00:51:52.968Z,3.50
2018-12-25T00:54:25.646Z,3.50
2018-12-25T00:56:57.849Z,3.40
2018-12-25T00:59:30.407Z,3.40
2018-12-25T01:02:02.289Z,3.30
2018-12-25T01:04:30.833Z,3.30
2018-12-25T01:06:59.125Z,3.30
2018-12-25T01:09:29.718Z,3.20
2018-12-25T01:11:57.295Z,3.10
2018-12-25T01:14:24.901Z,3.20
2018-12-25T01:16:52.498Z,3.20
2018-12-25T01:19:23.443Z,3.20
2018-12-25T01:21:50.126Z,3.20
2018-12-25T01:24:17.879Z,3.20
2018-12-25T01:26:45.818Z,3.20
2018-12-25T01:29:16.893Z,3.10
2018-12-25T01:31:45.077Z,3.10
2018-12-25T01:34:12.984Z,3.00
2018-12-25T01:36:40.632Z,3.00
2018-12-25T01:39:11.791Z,2.90
2018-12-25T01:41:40.848Z,2.90
2018-12-25T01:44:09.380Z,2.80
2018-12-25T01:46:37.235Z,2.70
2018-12-25T01:49:07.265Z,2.50
2018-12-25T01:51:35.139Z,2.30
2018-12-25T01:54:03.006Z,2.20
2018-12-25T01:56:30.658Z,2.20
2018-12-25T01:58:58.599Z,2.30
2018-12-25T02:01:26.450Z,2.40
2018-12-25T02:03:54.324Z,2.40
2018-12-25T02:06:22.070Z,2.40
2018-12-25T02:08:49.792Z,2.40
2018-12-25T02:11:18.128Z,2.40
2018-12-25T02:13:49.563Z,2.40
2018-12-25T02:16:17.778Z,2.40
2018-12-25T02:18:45.304Z,2.40
2018-12-25T02:21:13.198Z,2.40
2018-12-25T02:23:40.946Z,2.30
2018-12-25T02:26:08.776Z,2.30
2018-12-25T02:28:36.541Z,2.20
2018-12-25T02:31:04.384Z,2.10
2018-12-25T02:33:32.086Z,2.10
2018-12-25T02:36:00.085Z,2.20
2018-12-25T02:38:27.938Z,2.40
2018-12-25T02:40:58.242Z,2.50
2018-12-25T02:43:25.953Z,2.50
2018-12-25T02:45:53.811Z,2.50
2018-12-25T02:48:21.909Z,2.40
2018-12-25T02:50:49.431Z,2.30
2018-12-25T02:53:17.152Z,2.30
2018-12-25T02:55:44.889Z,2.30
2018-12-25T02:58:12.685Z,2.20
2018-12-25T03:00:40.855Z,2.00
2018-12-25T03:03:08.724Z,1.90
2018-12-25T03:05:36.470Z,1.80
2018-12-25T03:08:04.134Z,1.70
2018-12-25T03:10:32.160Z,1.80
2018-12-25T03:12:59.788Z,1.80
2018-12-25T03:15:27.561Z,1.90
2018-12-25T03:17:55.717Z,2.00
2018-12-25T03:20:23.570Z,2.10
2018-12-25T03:22:51.723Z,2.10
2018-12-25T03:25:19.423Z,1.90
2018-12-25T03:27:47.078Z,2.00
2018-12-25T03:30:14.910Z,2.00
2018-12-25T03:32:42.675Z,2.10
2018-12-25T03:35:10.485Z,2.10
2018-12-25T03:37:38.035Z,2.10
2018-12-25T03:40:06.584Z,2.10
2018-12-25T03:42:34.472Z,2.10
2018-12-25T03:45:02.234Z,2.00
2018-12-25T03:47:30.120Z,2.10
2018-12-25T03:49:57.684Z,2.10
2018-12-25T03:52:25.223Z,1.80
2018-12-25T03:54:52.877Z,1.80
2018-12-25T03:57:21.196Z,1.90
2018-12-25T03:59:48.757Z,2.10
2018-12-25T04:02:16.457Z,2.20
2018-12-25T04:04:44.080Z,2.20
2018-12-25T04:07:11.921Z,2.10
2018-12-25T04:09:39.715Z,2.00
2018-12-25T04:12:07.492Z,2.10
2018-12-25T04:14:35.408Z,2.10
2018-12-25T04:17:03.179Z,2.10
2018-12-25T04:19:31.384Z,2.20
2018-12-25T04:21:59.321Z,2.20
2018-12-25T04:24:27.664Z,2.30
2018-12-25T04:26:55.306Z,2.40
2018-12-25T04:29:23.023Z,2.40
2018-12-25T04:31:50.828Z,2.30
2018-12-25T04:34:18.680Z,2.30
2018-12-25T04:36:46.389Z,2.40
2018-12-25T04:39:14.131Z,2.20
2018-12-25T04:41:41.933Z,2.20
2018-12-25T04:44:09.710Z,2.20
2018-12-25T04:46:37.531Z,2.30
2018-12-25T04:49:05.378Z,2.30
2018-12-25T04:51:33.209Z,2.30
2018-12-25T04:54:01.313Z,2.40
2018-12-25T04:56:29.015Z,2.40
2018-12-25T04:58:56.905Z,2.40
2018-12-25T05:01:24.601Z,2.40
2018-12-25T05:03:52.401Z,2.50
2018-12-25T05:06:20.093Z,2.50
2018-12-25T05:08:47.820Z,2.50
2018-12-25T05:11:15.606Z,2.50
2018-12-25T05:13:43.817Z,2.60
2018-12-25T05:16:11.416Z,2.60
2018-12-25T05:18:39.322Z,2.50
2018-12-25T05:21:07.243Z,2.40
2018-12-25T05:23:35.945Z,2.50
2018-12-25T05:26:03.816Z,2.50
2018-12-25T05:28:32.074Z,2.50
2018-12-25T05:30:59.700Z,2.40
2018-12-25T05:33:27.500Z,2.40
2018-12-25T05:35:55.360Z,2.40
2018-12-25T05:38:22.937Z,2.50
2018-12-25T05:40:50.579Z,2.50
2018-12-25T05:43:18.263Z,2.60
2018-12-25T05:45:45.906Z,2.50
2018-12-25T05:48:13.623Z,2.60
2018-12-25T05:50:46.543Z,2.60
2018-12-25T05:53:14.151Z,2.60
2018-12-25T05:55:41.938Z,2.60
2018-12-25T05:58:09.791Z,2.50
2018-12-25T06:00:37.306Z,2.60
2018-12-25T06:03:05.017Z,2.60
2018-12-25T06:05:32.904Z,2.60
2018-12-25T06:08:00.609Z,2.70
2018-12-25T06:10:28.415Z,2.70
2018-12-25T06:12:56.180Z,2.60
2018-12-25T06:15:24.038Z,2.70
2018-12-25T06:17:51.738Z,2.50
2018-12-25T06:20:19.409Z,2.40
2018-12-25T06:22:47.083Z,2.40
2018-12-25T06:25:16.066Z,2.40
2018-12-25T06:27:45.897Z,2.40
2018-12-25T06:30:13.428Z,2.50
2018-12-25T06:32:41.266Z,2.60
2018-12-25T06:35:09.034Z,2.70
2018-12-25T06:37:36.696Z,2.80
2018-12-25T06:40:05.069Z,2.80
2018-12-25T06:42:32.894Z,2.70
2018-12-25T06:45:00.743Z,2.70
2018-12-25T06:47:28.593Z,2.60
2018-12-25T06:49:56.634Z,2.60
2018-12-25T06:52:24.382Z,2.60
2018-12-25T06:54:52.373Z,2.60
2018-12-25T06:57:20.773Z,2.70
2018-12-25T06:59:51.403Z,2.70
2018-12-25T07:02:19.503Z,2.70
2018-12-25T07:04:47.399Z,2.80
2018-12-25T07:07:15.180Z,2.80
2018-12-25T07:09:43.306Z,2.70
2018-12-25T07:12:13.135Z,2.60
2018-12-25T07:14:41.119Z,2.50
2018-12-25T07:17:09.286Z,2.60
2018-12-25T07:19:37.192Z,2.40
2018-12-25T07:22:07.815Z,2.20
2018-12-25T07:24:43.159Z,2.20
2018-12-25T07:27:17.893Z,2.20
2018-12-25T07:29:51.550Z,2.20
2018-12-25T07:32:23.432Z,2.30
2018-12-25T07:35:00.060Z,2.50
2018-12-25T07:37:28.273Z,2.50
2018-12-25T07:40:00.947Z,2.40
2018-12-25T07:42:28.536Z,2.50
2018-12-25T07:44:56.957Z,2.40
2018-12-25T07:47:24.424Z,2.30
2018-12-25T07:49:53.004Z,2.30
2018-12-25T07:52:22.872Z,2.30
2018-12-25T07:54:50.452Z,2.40
2018-12-25T07:57:20.078Z,2.40
2018-12-25T07:59:47.561Z,2.30
2018-12-25T08:02:15.351Z,2.30
2018-12-25T08:04:43.345Z,2.30
2018-12-25T08:07:16.070Z,2.20
2018-12-25T08:09:43.653Z,2.10
2018-12-25T08:12:12.327Z,2.10
2018-12-25T08:14:39.956Z,2.10
2018-12-25T08:17:07.474Z,2.10
2018-12-25T08:19:35.968Z,2.20
2018-12-25T08:22:07.273Z,2.30
2018-12-25T08:24:34.869Z,2.30
2018-12-25T08:27:02.470Z,2.20
2018-12-25T08:29:39.244Z,2.20
2018-12-25T08:32:07.417Z,2.20
2018-12-25T08:34:34.925Z,2.20
2018-12-25T08:37:02.474Z,2.20
2018-12-25T08:39:30.119Z,2.20
2018-12-25T08:41:57.663Z,2.30
2018-12-25T08:44:25.224Z,2.30
2018-12-25T08:46:52.732Z,2.30
2018-12-25T08:49:20.252Z,2.30
2018-12-25T08:51:47.785Z,2.30
2018-12-25T08:54:15.803Z,2.30
2018-12-25T08:56:43.375Z,2.20
2018-12-25T08:59:11.029Z,2.20
2018-12-25T09:01:39.225Z,2.20
2018-12-25T09:04:07.228Z,2.20
2018-12-25T09:06:34.749Z,2.30
2018-12-25T09:09:05.160Z,2.30
2018-12-25T09:11:32.787Z,2.30
2018-12-25T09:14:00.843Z,2.40
2018-12-25T09:16:28.376Z,2.40
2018-12-25T09:18:55.952Z,2.60
2018-12-25T09:21:23.520Z,2.40
2018-12-25T09:23:51.243Z,2.60
2018-12-25T09:26:18.784Z,2.60
2018-12-25T09:28:46.482Z,2.70
2018-12-25T09:31:14.400Z,2.80
2018-12-25T09:33:42.107Z,2.70
2018-12-25T09:36:10.140Z,2.50
2018-12-25T09:38:40.116Z,2.50
2018-12-25T09:41:07.906Z,2.50
2018-12-25T09:43:35.454Z,2.60
2018-12-25T09:46:03.147Z,2.60
2018-12-25T09:48:31.752Z,2.40
2018-12-25T09:50:59.473Z,2.50
2018-12-25T09:53:27.127Z,2.30
2018-12-25T09:55:54.785Z,2.40
2018-12-25T09:58:22.816Z,2.50
2018-12-25T10:00:50.469Z,2.40
2018-12-25T10:03:18.384Z,2.50
2018-12-25T10:05:46.149Z,2.50
2018-12-25T10:08:13.716Z,2.50
2018-12-25T10:10:44.182Z,2.50
2018-12-25T10:13:11.849Z,2.40
2018-12-25T10:15:39.989Z,2.30
2018-12-25T10:18:07.855Z,2.40
2018-12-25T10:20:35.805Z,2.20
2018-12-25T10:23:04.231Z,2.20
2018-12-25T10:25:32.281Z,2.20
2018-12-25T10:28:00.245Z,2.30
2018-12-25T10:30:28.432Z,2.50
2018-12-25T10:32:56.896Z,2.70
2018-12-25T10:35:24.989Z,2.70
2018-12-25T10:37:53.021Z,2.70
2018-12-25T10:40:20.748Z,2.90
2018-12-25T10:42:48.626Z,2.70
2018-12-25T10:45:16.455Z,2.50
2018-12-25T10:47:44.002Z,2.70
2018-12-25T10:50:12.266Z,2.90
2018-12-25T10:52:40.539Z,3.00
2018-12-25T10:55:08.463Z,3.10
2018-12-25T10:57:36.864Z,3.00
2018-12-25T11:00:08.988Z,2.90
2018-12-25T11:02:37.843Z,3.20
2018-12-25T11:05:06.213Z,3.10
2018-12-25T11:07:34.280Z,3.00
2018-12-25T11:10:02.986Z,3.00
2018-12-25T11:12:30.768Z,3.00
2018-12-25T11:14:58.320Z,2.70
2018-12-25T11:17:26.838Z,2.70
2018-12-25T11:19:54.484Z,2.70
2018-12-25T11:22:39.243Z,2.60
2018-12-25T11:25:14.354Z,2.70
2018-12-25T11:27:42.808Z,2.90
2018-12-25T11:30:10.381Z,3.00
2018-12-25T11:32:38.481Z,3.10
2018-12-25T11:35:08.639Z,2.90
2018-12-25T11:37:36.568Z,2.70
2018-12-25T11:40:05.980Z,2.60
2018-12-25T11:42:33.790Z,2.60
2018-12-25T11:45:02.344Z,2.70
2018-12-25T11:47:31.238Z,2.70
2018-12-25T11:49:59.536Z,2.70
2018-12-25T11:52:28.440Z,2.70
2018-12-25T11:54:56.484Z,2.60
2018-12-25T11:57:24.271Z,2.50
2018-12-25T11:59:51.952Z,2.30
2018-12-25T12:02:20.254Z,2.40
2018-12-25T12:05:22.681Z,2.40
2018-12-25T12:07:50.408Z,2.50
2018-12-25T12:10:21.080Z,2.60
2018-12-25T12:12:52.661Z,2.60
2018-12-25T12:15:22.661Z,2.80
2018-12-25T12:17:50.246Z,2.70
2018-12-25T12:20:21.198Z,2.80
2018-12-25T12:22:52.257Z,2.90
2018-12-25T12:25:20.424Z,3.00
2018-12-25T12:27:48.529Z,3.00
2018-12-25T12:30:19.343Z,3.00
2018-12-25T12:32:47.881Z,3.10
2018-12-25T12:35:15.421Z,2.90
2018-12-25T12:37:43.294Z,2.90
2018-12-25T12:40:11.369Z,3.10
2018-12-25T12:42:39.471Z,3.10
2018-12-25T12:45:07.225Z,3.30
2018-12-25T12:47:38.014Z,3.40
2018-12-25T12:50:07.129Z,3.50
2018-12-25T12:52:45.215Z,3.60
2018-12-25T12:55:07.631Z,3.80
2018-12-25T12:57:36.709Z,3.90
2018-12-25T13:00:05.524Z,3.90
2018-12-25T13:02:34.765Z,3.60
2018-12-25T13:05:08.002Z,3.40
2018-12-25T13:07:35.595Z,3.10
2018-12-25T13:10:03.495Z,3.30
2018-12-25T13:12:31.352Z,3.30
2018-12-25T13:15:09.192Z,3.30
2018-12-25T13:17:36.798Z,3.30
2018-12-25T13:20:04.649Z,3.40
2018-12-25T13:22:32.259Z,3.40
2018-12-25T13:24:59.926Z,3.20
2018-12-25T13:27:27.395Z,3.20
2018-12-25T13:29:55.084Z,3.10
2018-12-25T13:32:27.868Z,3.10
2018-12-25T13:34:55.312Z,3.10
2018-12-25T13:37:22.811Z,3.30
2018-12-25T13:39:51.670Z,3.40
2018-12-25T13:42:19.256Z,3.50
2018-12-25T13:44:47.840Z,3.40
2018-12-25T13:47:16.001Z,3.60
2018-12-25T13:49:43.568Z,3.60
2018-12-25T13:52:11.161Z,3.60
2018-12-25T13:54:38.848Z,3.40
2018-12-25T13:57:06.475Z,3.40
2018-12-25T13:59:34.088Z,3.40
2018-12-25T14:02:01.710Z,3.20
2018-12-25T14:04:29.343Z,3.20
2018-12-25T14:06:57.084Z,3.30
2018-12-25T14:09:24.635Z,3.30
2018-12-25T14:11:52.340Z,3.30
2018-12-25T14:14:20.012Z,3.10
2018-12-25T14:16:47.741Z,3.10
2018-12-25T14:19:15.387Z,3.10
2018-12-25T14:21:42.943Z,3.10
2018-12-25T14:24:10.575Z,3.10
2018-12-25T14:26:38.076Z,3.10
2018-12-25T14:29:05.591Z,2.90
2018-12-25T14:31:33.248Z,3.10
2018-12-25T14:34:00.808Z,3.20
2018-12-25T14:36:28.361Z,3.30
2018-12-25T14:38:55.970Z,3.30
2018-12-25T14:41:23.842Z,3.20
2018-12-25T14:43:51.734Z,3.30
2018-12-25T14:46:19.256Z,3.20
2018-12-25T14:48:46.707Z,3.00
2018-12-25T14:51:15.940Z,3.10
2018-12-25T14:53:43.462Z,3.10
2018-12-25T14:56:10.979Z,3.00
2018-12-25T14:58:38.636Z,3.10
2018-12-25T15:01:06.392Z,3.20
2018-12-25T15:03:33.882Z,3.30
2018-12-25T15:06:01.364Z,3.30
2018-12-25T15:08:29.161Z,3.40
2018-12-25T15:10:56.672Z,3.30
2018-12-25T15:13:24.266Z,3.10
2018-12-25T15:15:51.768Z,3.00
2018-12-25T15:18:19.520Z,2.80
2018-12-25T15:20:46.980Z,2.70
2018-12-25T15:23:14.493Z,2.80
2018-12-25T15:25:41.982Z,2.70
2018-12-25T15:28:09.464Z,2.70
2018-12-25T15:30:37.034Z,2.60
2018-12-25T15:33:04.947Z,2.80
2018-12-25T15:35:32.548Z,2.60
2018-12-25T15:38:00.076Z,2.40
2018-12-25T15:40:27.543Z,2.30
2018-12-25T15:42:55.016Z,2.30
2018-12-25T15:45:22.558Z,2.30
2018-12-25T15:47:50.352Z,2.20
2018-12-25T15:50:18.516Z,2.10
2018-12-25T15:52:46.188Z,2.30
2018-12-25T15:55:13.760Z,2.30
2018-12-25T15:57:41.304Z,2.40
2018-12-25T16:00:13.481Z,2.40
2018-12-25T16:02:41.095Z,2.40
2018-12-25T16:05:08.624Z,2.50
2018-12-25T16:07:36.639Z,2.40
2018-12-25T16:10:04.475Z,2.40
2018-12-25T16:12:32.097Z,2.60
2018-12-25T16:14:59.697Z,2.70
2018-12-25T16:17:27.238Z,2.70
2018-12-25T16:19:54.987Z,2.80
2018-12-25T16:22:22.492Z,2.80
2018-12-25T16:24:50.177Z,2.50
2018-12-25T16:27:17.849Z,2.50
2018-12-25T16:29:45.565Z,2.40
2018-12-25T16:32:13.084Z,2.30
2018-12-25T16:34:42.184Z,2.50
2018-12-25T16:37:10.024Z,2.40
2018-12-25T16:39:37.609Z,2.30
2018-12-25T16:42:05.606Z,2.20
2018-12-25T16:44:33.063Z,2.30
2018-12-25T16:47:00.698Z,2.30
2018-12-25T16:49:28.322Z,2.20
2018-12-25T16:51:56.221Z,2.40
2018-12-25T16:54:25.142Z,2.50
2018-12-25T16:56:52.796Z,2.50
2018-12-25T16:59:20.541Z,2.40
2018-12-25T17:01:50.236Z,2.40
2018-12-25T17:04:18.142Z,2.30
2018-12-25T17:06:50.124Z,2.40
2018-12-25T17:09:18.215Z,2.40
2018-12-25T17:11:48.149Z,2.40
2018-12-25T17:14:15.800Z,2.30
2018-12-25T17:16:43.589Z,2.40
2018-12-25T17:19:11.415Z,2.30
2018-12-25T17:21:42.226Z,2.30
2018-12-25T17:24:09.981Z,2.20
2018-12-25T17:26:38.323Z,2.20
2018-12-25T17:29:08.267Z,2.00
2018-12-25T17:31:48.261Z,2.10
2018-12-25T17:34:22.606Z,2.10
2018-12-25T17:36:58.452Z,2.30
2018-12-25T17:39:38.295Z,2.30
2018-12-25T17:42:06.829Z,2.40
2018-12-25T17:44:36.049Z,2.60
2018-12-25T17:47:08.346Z,2.50
2018-12-25T17:49:51.416Z,2.50
2018-12-25T17:52:29.295Z,2.50
2018-12-25T17:55:02.368Z,2.50
2018-12-25T17:57:29.933Z,2.50
2018-12-25T18:00:03.963Z,2.40
2018-12-25T18:02:34.526Z,2.20
2018-12-25T18:05:21.496Z,2.30
2018-12-25T18:07:49.617Z,2.20
2018-12-25T18:10:27.290Z,2.00
2018-12-25T18:13:06.129Z,2.10
2018-12-25T18:15:41.323Z,2.20
2018-12-25T18:18:37.824Z,2.30
2018-12-25T18:21:28.913Z,2.30
2018-12-25T18:23:56.834Z,2.20
2018-12-25T18:26:25.268Z,2.20
2018-12-25T18:28:52.937Z,2.30
2018-12-25T18:31:20.688Z,2.40
2018-12-25T18:33:48.596Z,2.30
2018-12-25T18:36:18.605Z,2.30
2018-12-25T18:38:46.204Z,2.30
2018-12-25T18:41:13.745Z,2.30
2018-12-25T18:43:41.417Z,2.20
2018-12-25T18:46:10.356Z,2.20
2018-12-25T18:48:38.457Z,2.00
2018-12-25T18:51:15.535Z,2.00
2018-12-25T18:53:50.721Z,2.10
2018-12-25T18:56:20.493Z,2.10
2018-12-25T18:58:48.032Z,2.20
2018-12-25T19:01:15.972Z,2.30
2018-12-25T19:03:43.516Z,2.30
2018-12-25T19:06:11.117Z,2.30
2018-12-25T19:08:38.728Z,2.30
2018-12-25T19:11:06.327Z,2.40
2018-12-25T19:13:33.755Z,2.50
2018-12-25T19:16:01.408Z,2.50
2018-12-25T19:18:28.921Z,2.40
2018-12-25T19:20:56.400Z,2.40
2018-12-25T19:23:24.032Z,2.20
2018-12-25T19:25:52.323Z,2.10
2018-12-25T19:28:20.942Z,2.10
2018-12-25T19:30:48.541Z,2.00
2018-12-25T19:33:16.329Z,1.80
2018-12-25T19:35:43.889Z,1.90
2018-12-25T19:38:12.452Z,2.00
2018-12-25T19:40:39.892Z,2.20
2018-12-25T19:43:09.407Z,2.70
2018-12-25T19:45:36.856Z,2.80
2018-12-25T19:48:04.596Z,2.70
2018-12-25T19:50:32.458Z,2.50
2018-12-25T19:53:02.556Z,2.60
2018-12-25T19:55:50.464Z,2.70
2018-12-25T19:58:20.649Z,2.50
2018-12-25T20:00:49.041Z,2.40
2018-12-25T20:03:21.927Z,2.50
2018-12-25T20:06:34.145Z,2.40
2018-12-25T20:09:35.044Z,2.40
2018-12-25T20:12:36.709Z,2.20
2018-12-25T20:15:23.409Z,1.90
2018-12-25T20:18:32.667Z,1.80
2018-12-25T20:21:49.586Z,1.90
2018-12-25T20:25:02.777Z,2.20
2018-12-25T20:28:13.502Z,2.10
2018-12-25T20:31:23.544Z,2.10
2018-12-25T20:34:25.687Z,2.00
2018-12-25T20:37:32.169Z,2.00
2018-12-25T20:40:52.468Z,2.10
2018-12-25T20:44:16.191Z,2.20
2018-12-25T20:47:43.964Z,2.20
2018-12-25T20:50:55.263Z,2.10
2018-12-25T20:54:31.697Z,2.00
2018-12-25T20:57:36.840Z,2.10
2018-12-25T21:00:22.886Z,2.00
2018-12-25T21:03:38.566Z,2.00
2018-12-25T21:07:00.732Z,2.10
2018-12-25T21:10:10.197Z,2.10
2018-12-25T21:13:11.691Z,2.10
2018-12-25T21:16:21.220Z,2.00
2018-12-25T21:19:30.691Z,1.90
2018-12-25T21:22:24.480Z,1.90
2018-12-25T21:25:28.892Z,1.90
2018-12-25T21:27:55.520Z,2.00
2018-12-25T21:30:26.668Z,2.20
2018-12-25T21:32:57.536Z,2.20
2018-12-25T21:35:25.771Z,2.10
2018-12-25T21:37:55.617Z,2.10
2018-12-25T21:40:27.620Z,1.90
2018-12-25T21:43:17.252Z,1.80
2018-12-25T21:49:20.395Z,1.90
2018-12-25T21:51:55.310Z,2.00
2018-12-25T22:01:29.116Z,2.20
2018-12-25T22:04:32.175Z,2.10
2018-12-25T22:07:17.432Z,1.90
2018-12-25T22:09:54.141Z,1.90
2018-12-25T22:12:30.322Z,2.00
2018-12-25T22:15:00.460Z,2.00
2018-12-25T22:17:28.999Z,2.00
2018-12-25T22:20:06.864Z,2.00
2018-12-25T22:23:05.445Z,2.00
2018-12-25T22:25:39.437Z,2.00
2018-12-25T22:35:37.612Z,2.10
2018-12-25T22:38:14.090Z,2.10
2018-12-25T22:40:48.048Z,2.20
2018-12-25T22:43:26.354Z,2.40
2018-12-25T22:46:01.976Z,2.40
2018-12-25T22:49:11.862Z,2.50
2018-12-25T22:52:34.947Z,2.40
2018-12-25T22:55:15.323Z,2.40
2018-12-25T23:06:10.192Z,2.50
2018-12-25T23:08:44.214Z,2.50
2018-12-25T23:11:32.823Z,2.40
2018-12-25T23:14:12.433Z,2.40
2018-12-25T23:20:57.054Z,2.40
2018-12-25T23:23:50.384Z,2.20
2018-12-25T23:30:43.833Z,2.10
2018-12-25T23:37:04.416Z,2.40
2018-12-25T23:40:18.779Z,2.30
2018-12-25T23:43:44.443Z,2.30
2018-12-25T23:46:41.926Z,2.10
2018-12-25T23:49:37.775Z,2.20
2018-12-25T23:56:34.200Z,2.10
2018-12-25T23:59:25.693Z,2.10
